Time;durP1;ratioP1;P1;durP2;ratioP2;P2;SDS_P1;SDS_P2;PMS_P1;PMS_P2;Temp;Humidity;BMP_temperature;BMP_pressure;BME280_temperature;BME280_humidity;BME280_pressure;Samples;Min_cycle;Max_cycle;Signal;HPM_P1;HPM_P2
2023/03/17 00:00:10;;;;;;;6.32;2.65;;;;;;;-144.73;55.85;54459.00;5037348;28;20116;-71
2023/03/17 00:02:37;;;;;;;9.85;2.78;;;;;;;-144.73;55.59;54473.38;5036818;28;20127;-71
2023/03/17 00:05:16;;;;;;;6.40;3.17;;;;;;;-144.73;55.74;54432.31;5036711;28;20099;-70
2023/03/17 00:07:43;;;;;;;9.77;3.42;;;;;;;-144.73;56.10;54473.38;5054154;28;20029;-71
2023/03/17 00:10:17;;;;;;;5.22;2.58;;;;;;;-144.73;56.48;54432.31;5048161;28;20496;-70
2023/03/17 00:12:43;;;;;;;7.82;3.38;;;;;;;-144.73;56.26;54452.84;5016280;28;20037;-70
2023/03/17 00:15:09;;;;;;;7.88;2.75;;;;;;;-144.73;56.20;54440.53;5016993;28;20023;-69
2023/03/17 00:17:35;;;;;;;10.25;3.05;;;;;;;-144.73;56.55;54469.28;5016457;28;20116;-69
2023/03/17 00:20:02;;;;;;;10.77;3.15;;;;;;;-144.73;56.25;54444.66;5016731;28;20033;-69
2023/03/17 00:22:28;;;;;;;9.63;2.58;;;;;;;-144.73;56.25;54469.28;5034098;28;20042;-70
2023/03/17 00:24:53;;;;;;;7.80;2.72;;;;;;;-144.73;56.38;54481.59;5036474;28;20151;-69
2023/03/17 00:27:19;;;;;;;6.40;3.25;;;;;;;-144.73;56.04;54481.59;5036301;28;20041;-70
2023/03/17 00:29:45;;;;;;;6.85;2.75;;;;;;;-144.73;56.37;54452.84;5017040;28;20033;-70
2023/03/17 00:32:19;;;;;;;7.57;2.85;;;;;;;-144.73;56.55;54459.00;5015797;28;20086;-70
2023/03/17 00:34:45;;;;;;;9.43;2.70;;;;;;;-144.73;56.66;54469.28;5035553;28;20033;-70
2023/03/17 00:37:11;;;;;;;4.70;2.83;;;;;;;-144.73;56.66;54446.69;5021254;28;20099;-70
2023/03/17 00:39:38;;;;;;;9.10;3.22;;;;;;;-144.73;56.53;54465.16;5016333;28;20064;-70
2023/03/17 00:42:05;;;;;;;11.07;2.78;;;;;;;-144.73;57.01;54461.06;5029361;28;20037;-70
2023/03/17 00:44:31;;;;;;;6.72;3.13;;;;;;;-144.73;56.90;54411.81;5053971;28;20029;-70
2023/03/17 00:46:58;;;;;;;6.00;2.65;;;;;;;-144.73;56.62;54452.84;5035773;28;20040;-70
2023/03/17 00:49:25;;;;;;;6.25;2.40;;;;;;;-144.73;57.03;54440.53;5053721;28;20079;-70
2023/03/17 00:51:51;;;;;;;5.80;2.30;;;;;;;-144.73;57.13;54417.97;5019028;28;20047;-71
2023/03/17 00:54:19;;;;;;;6.45;2.47;;;;;;;-144.73;57.41;54452.84;5028936;28;20036;-71
2023/03/17 00:56:45;;;;;;;7.20;2.67;;;;;;;-144.73;57.58;54471.31;5018167;28;20065;-71
2023/03/17 00:59:23;;;;;;;6.40;2.50;;;;;;;-144.73;57.60;54424.13;5029641;28;20025;-71
2023/03/17 01:01:48;;;;;;;9.07;3.05;;;;;;;-144.73;58.15;54444.66;5041473;28;20064;-71
2023/03/17 01:04:14;;;;;;;7.53;3.22;;;;;;;-144.73;58.43;54436.44;5034704;28;20131;-71
2023/03/17 01:06:40;;;;;;;8.32;3.20;;;;;;;-144.73;58.21;54415.91;5044376;28;20094;-71
2023/03/17 01:09:07;;;;;;;7.90;2.72;;;;;;;-144.73;58.77;54473.38;5039039;28;20071;-71
2023/03/17 01:11:32;;;;;;;9.85;2.65;;;;;;;-144.73;59.11;54440.53;5027076;28;20088;-70
2023/03/17 01:13:57;;;;;;;9.05;3.00;;;;;;;-144.73;59.00;54432.31;5027226;28;20393;-71
2023/03/17 01:16:23;;;;;;;9.27;3.05;;;;;;;-144.73;59.52;54415.91;5019101;28;20890;-71
2023/03/17 01:18:48;;;;;;;8.52;3.17;;;;;;;-144.73;59.55;54463.13;5023934;28;20025;-71
2023/03/17 01:21:14;;;;;;;3.97;2.38;;;;;;;-144.73;59.64;54485.69;5021356;28;20045;-70
2023/03/17 01:23:40;;;;;;;7.75;2.92;;;;;;;-144.73;60.20;54432.31;5019126;28;20027;-70
2023/03/17 01:26:06;;;;;;;7.88;2.80;;;;;;;-144.73;60.81;54469.28;5021366;28;20026;-71
2023/03/17 01:28:32;;;;;;;8.23;3.10;;;;;;;-144.73;60.56;54432.31;5024589;28;20078;-71
2023/03/17 01:30:57;;;;;;;10.25;3.17;;;;;;;-144.73;60.44;54432.31;5037216;28;20033;-71
2023/03/17 01:33:23;;;;;;;8.80;3.72;;;;;;;-144.73;61.03;54456.97;5030365;28;20037;-71
2023/03/17 01:35:49;;;;;;;6.35;3.10;;;;;;;-144.73;60.93;54461.06;5026528;28;20025;-71
2023/03/17 01:38:16;;;;;;;8.68;3.00;;;;;;;-144.73;60.91;54407.69;5026435;28;20087;-71
2023/03/17 01:40:50;;;;;;;12.45;3.38;;;;;;;-144.73;62.00;54440.53;5044313;28;20156;-71
2023/03/17 01:43:26;;;;;;;10.48;3.45;;;;;;;-144.73;61.69;54448.75;5027917;28;20044;-71
2023/03/17 01:46:14;;;;;;;5.60;2.85;;;;;;;-144.73;61.82;54432.31;5023401;28;20489;-71
2023/03/17 01:48:59;;;;;;;7.53;3.30;;;;;;;-144.73;62.12;54395.38;5030004;28;20070;-71
2023/03/17 01:51:34;;;;;;;15.18;3.75;;;;;;;-144.73;62.48;54440.53;5032191;28;20037;-71
2023/03/17 01:54:03;;;;;;;7.53;3.05;;;;;;;-144.73;62.71;54448.75;5031356;28;20060;-71
2023/03/17 01:56:30;;;;;;;8.00;3.13;;;;;;;-144.73;62.39;54434.38;5047291;28;20090;-71
2023/03/17 01:59:00;;;;;;;10.63;3.65;;;;;;;-144.73;62.75;54461.06;5022904;28;20052;-71
2023/03/17 02:01:32;;;;;;;6.88;3.30;;;;;;;-144.73;63.42;54442.59;5022801;28;20033;-71
2023/03/17 02:03:58;;;;;;;9.55;3.22;;;;;;;-144.73;63.09;54461.06;5032211;28;20029;-71
2023/03/17 02:06:24;;;;;;;9.93;3.60;;;;;;;-144.73;63.26;54448.75;5036753;28;20405;-71
2023/03/17 02:08:50;;;;;;;8.63;3.63;;;;;;;-144.73;63.73;54389.22;5025901;28;20036;-71
2023/03/17 02:11:17;;;;;;;7.97;3.40;;;;;;;-144.73;63.99;54473.38;5051541;28;20481;-71
2023/03/17 02:13:43;;;;;;;7.88;3.30;;;;;;;-144.73;64.08;54448.75;5024579;28;20614;-71
2023/03/17 02:16:14;;;;;;;6.90;3.42;;;;;;;-144.73;64.24;54473.38;5027282;28;20055;-71
2023/03/17 02:18:40;;;;;;;8.05;3.40;;;;;;;-144.73;64.75;54448.75;5024585;28;20029;-71
2023/03/17 02:21:39;;;;;;;7.72;3.13;;;;;;;-144.73;65.08;54477.47;5018572;28;20145;-71
2023/03/17 02:24:11;;;;;;;8.55;3.30;;;;;;;-144.73;64.87;54407.69;5044961;28;20118;-71
2023/03/17 02:26:37;;;;;;;6.75;3.45;;;;;;;-144.73;65.12;54448.75;5033634;28;20037;-71
2023/03/17 02:29:04;;;;;;;10.90;3.65;;;;;;;-144.73;65.50;54411.81;5021739;28;20041;-71
2023/03/17 02:31:30;;;;;;;10.23;3.60;;;;;;;-144.73;65.51;54411.81;5039955;28;20037;-70
2023/03/17 02:33:55;;;;;;;8.80;3.10;;;;;;;-144.73;65.75;54489.81;5026347;28;20072;-71
2023/03/17 02:36:21;;;;;;;8.07;3.17;;;;;;;-144.73;66.15;54420.00;5013724;28;20060;-71
2023/03/17 02:38:46;;;;;;;6.90;2.78;;;;;;;-144.73;66.03;54465.16;5032389;28;20028;-71
2023/03/17 02:41:12;;;;;;;8.13;3.72;;;;;;;-144.73;65.91;54440.53;5042825;28;20025;-71
2023/03/17 02:43:37;;;;;;;7.70;3.78;;;;;;;-144.73;65.49;54481.59;5016959;28;20071;-71
2023/03/17 02:46:04;;;;;;;7.00;3.40;;;;;;;-144.73;66.17;54411.81;5021537;28;20022;-71
2023/03/17 02:48:30;;;;;;;6.97;3.05;;;;;;;-144.73;65.87;54436.44;5047809;28;20021;-71
2023/03/17 02:50:56;;;;;;;10.45;3.30;;;;;;;-144.73;65.41;54456.97;5025203;28;20021;-71
2023/03/17 02:53:21;;;;;;;9.05;3.08;;;;;;;-144.73;65.66;54436.44;5033313;28;20040;-72
2023/03/17 02:55:47;;;;;;;8.93;3.63;;;;;;;-144.73;66.04;54452.84;5025557;28;20075;-70
2023/03/17 02:58:12;;;;;;;7.20;3.45;;;;;;;-144.73;65.94;54461.06;5028096;28;20116;-70
2023/03/17 03:00:39;;;;;;;11.00;3.75;;;;;;;-144.73;65.70;54452.84;5040298;28;20066;-71
2023/03/17 03:03:04;;;;;;;8.52;3.45;;;;;;;-144.73;65.90;54469.28;5033152;28;20059;-71
2023/03/17 03:05:30;;;;;;;8.15;2.92;;;;;;;-144.73;66.34;54448.75;5037829;28;20053;-71
2023/03/17 03:07:55;;;;;;;8.70;3.17;;;;;;;-144.73;66.28;54465.16;5021618;28;20514;-70
2023/03/17 03:10:21;;;;;;;13.25;3.40;;;;;;;-144.73;66.58;54436.44;5020128;28;20039;-70
2023/03/17 03:12:48;;;;;;;5.18;2.85;;;;;;;-144.73;66.98;54473.38;5025374;28;20033;-71
2023/03/17 03:15:14;;;;;;;10.45;3.42;;;;;;;-144.73;66.21;54438.50;5019435;28;20108;-70
2023/03/17 03:17:40;;;;;;;8.50;3.97;;;;;;;-144.73;66.19;54436.44;5014162;28;20038;-71
2023/03/17 03:20:06;;;;;;;7.97;3.78;;;;;;;-144.73;66.30;54452.84;5025327;28;20032;-71
2023/03/17 03:22:32;;;;;;;8.48;3.30;;;;;;;-144.73;66.39;54448.75;5032856;28;20394;-71
2023/03/17 03:24:57;;;;;;;7.43;3.88;;;;;;;-144.73;66.75;54491.84;5029882;28;20020;-70
2023/03/17 03:27:22;;;;;;;10.88;3.90;;;;;;;-144.73;66.63;54452.84;5021638;28;20183;-71
2023/03/17 03:29:48;;;;;;;9.90;3.33;;;;;;;-144.73;66.53;54446.69;5022927;28;20095;-70
2023/03/17 03:32:13;;;;;;;12.48;4.22;;;;;;;-144.73;66.79;54424.13;5045736;28;20433;-70
2023/03/17 03:34:38;;;;;;;8.63;3.60;;;;;;;-144.73;66.98;54428.22;5032007;28;20032;-70
2023/03/17 03:37:04;;;;;;;6.97;3.05;;;;;;;-144.73;66.90;54461.06;5028178;28;20045;-70
2023/03/17 03:39:29;;;;;;;10.02;4.22;;;;;;;-144.73;66.48;54440.53;5028996;28;20128;-70
2023/03/17 03:41:57;;;;;;;12.82;3.55;;;;;;;-144.73;66.96;54424.13;5028672;28;20044;-71
2023/03/17 03:44:23;;;;;;;8.07;3.65;;;;;;;-144.73;66.68;54487.75;5046615;28;20044;-71
2023/03/17 03:46:49;;;;;;;11.70;3.97;;;;;;;-144.73;67.15;54436.44;5026823;28;20102;-70
2023/03/17 03:49:14;;;;;;;12.85;4.13;;;;;;;-144.73;67.19;54436.44;5017486;28;20021;-70
2023/03/17 03:51:40;;;;;;;9.85;3.80;;;;;;;-144.73;66.69;54452.84;5033795;28;20120;-70
2023/03/17 03:54:06;;;;;;;10.00;4.10;;;;;;;-144.73;67.43;54424.13;5028807;28;20021;-71
2023/03/17 03:56:31;;;;;;;12.82;4.07;;;;;;;-144.73;67.13;54473.38;5028862;28;20045;-71
2023/03/17 03:58:56;;;;;;;8.95;4.07;;;;;;;-144.73;67.50;54469.28;5046056;28;20094;-71
2023/03/17 04:01:22;;;;;;;7.93;3.58;;;;;;;-144.73;68.01;54465.16;5054348;28;20127;-71
2023/03/17 04:03:47;;;;;;;10.93;4.53;;;;;;;-144.73;69.22;54407.69;5035485;28;20078;-70
2023/03/17 04:06:13;;;;;;;8.65;4.20;;;;;;;-144.73;69.01;54454.91;5029279;28;20048;-71
2023/03/17 04:08:38;;;;;;;7.38;3.78;;;;;;;-144.73;69.41;54452.84;5054185;28;20484;-71
2023/03/17 04:11:04;;;;;;;8.05;3.97;;;;;;;-144.73;70.03;54452.84;5024267;28;20026;-70
2023/03/17 04:13:29;;;;;;;11.30;4.32;;;;;;;-144.73;70.25;54452.84;5042584;28;20029;-70
2023/03/17 04:15:55;;;;;;;10.70;3.70;;;;;;;-144.73;70.29;54448.75;5026927;28;20020;-70
2023/03/17 04:18:25;;;;;;;9.20;3.88;;;;;;;-144.73;69.99;54473.38;5081704;23;20211;-78
2023/03/17 04:20:51;;;;;;;13.57;4.63;;;;;;;-144.73;70.12;54430.28;4995169;28;20112;-80
2023/03/17 04:23:16;;;;;;;9.00;4.20;;;;;;;-144.73;70.43;54424.13;4997027;28;20064;-80
2023/03/17 04:25:45;;;;;;;16.70;4.22;;;;;;;-144.73;70.26;54438.50;5013535;28;20018;-79
2023/03/17 04:28:11;;;;;;;6.68;3.55;;;;;;;-144.73;70.48;54477.47;4988496;28;20046;-79
2023/03/17 04:30:37;;;;;;;9.48;4.28;;;;;;;-144.73;70.49;54426.16;4998353;28;20161;-80
2023/03/17 04:33:03;;;;;;;8.73;4.50;;;;;;;-144.73;70.44;54452.84;4997272;28;20030;-80
2023/03/17 04:35:31;;;;;;;11.40;4.47;;;;;;;-144.73;71.13;54411.81;4997573;28;20017;-80
2023/03/17 04:38:00;;;;;;;8.45;4.28;;;;;;;-144.73;70.76;54422.06;4996922;28;20030;-79
2023/03/17 04:40:26;;;;;;;11.50;4.60;;;;;;;-144.73;70.98;54452.84;4998509;28;20034;-80
2023/03/17 04:43:00;;;;;;;8.88;4.53;;;;;;;-144.73;71.23;54428.22;4995764;28;20038;-80
2023/03/17 04:45:26;;;;;;;11.07;4.43;;;;;;;-144.73;71.67;54456.97;4998918;28;20026;-79
2023/03/17 04:47:51;;;;;;;10.50;3.80;;;;;;;-144.73;71.75;54432.31;5000437;28;20045;-79
2023/03/17 04:50:19;;;;;;;10.23;4.32;;;;;;;-144.73;72.08;54444.66;4998938;28;20034;-79
2023/03/17 04:52:50;;;;;;;11.25;4.35;;;;;;;-144.73;71.79;54448.75;4990856;28;20041;-80
2023/03/17 04:55:15;;;;;;;10.45;4.85;;;;;;;-144.73;71.66;54411.81;5005283;28;20021;-80
2023/03/17 04:57:41;;;;;;;10.52;4.45;;;;;;;-144.73;71.20;54424.13;5004758;28;20034;-79
2023/03/17 05:00:17;;;;;;;7.90;4.40;;;;;;;-144.73;71.67;54411.81;5006982;28;20028;-80
2023/03/17 05:02:53;;;;;;;10.88;4.55;;;;;;;-144.73;71.54;54446.69;4997827;28;20042;-80
2023/03/17 05:05:21;;;;;;;11.50;4.75;;;;;;;-144.73;72.04;54424.13;5007442;28;20041;-80
2023/03/17 05:07:50;;;;;;;8.57;4.10;;;;;;;-144.73;72.04;54444.66;5016919;28;20588;-80
2023/03/17 05:10:16;;;;;;;10.95;4.65;;;;;;;-144.73;72.36;54424.13;5019907;28;20116;-80
2023/03/17 05:13:01;;;;;;;7.53;4.50;;;;;;;-144.73;72.30;54430.28;5014580;28;20026;-79
2023/03/17 05:15:30;;;;;;;7.38;4.38;;;;;;;-144.73;72.89;54389.22;5014936;28;20029;-81
2023/03/17 05:17:55;;;;;;;8.05;4.18;;;;;;;-144.73;72.84;54461.06;5004020;28;20038;-80
2023/03/17 05:20:26;;;;;;;10.55;4.45;;;;;;;-144.73;73.26;54424.13;5016560;28;20020;-80
2023/03/17 05:22:57;;;;;;;13.45;4.85;;;;;;;-144.73;73.41;54436.44;5014763;28;20061;-80
2023/03/17 05:25:26;;;;;;;9.07;4.43;;;;;;;-144.73;73.64;54407.69;5015054;28;20026;-80
2023/03/17 05:27:51;;;;;;;9.38;4.72;;;;;;;-144.73;73.71;54481.59;4995276;28;20037;-79
2023/03/17 05:30:20;;;;;;;13.93;4.95;;;;;;;-144.73;73.71;54448.75;5003030;28;20029;-80
2023/03/17 05:32:45;;;;;;;9.82;4.53;;;;;;;-144.73;73.73;54452.84;4996976;28;20044;-79
2023/03/17 05:35:14;;;;;;;9.60;4.68;;;;;;;-144.73;73.70;54448.75;4997246;28;20018;-80
2023/03/17 05:37:39;;;;;;;8.98;4.97;;;;;;;-144.73;73.53;54469.28;4999658;28;20025;-80
2023/03/17 05:40:11;;;;;;;12.90;4.95;;;;;;;-144.73;73.33;54420.00;4999843;28;20041;-80
2023/03/17 05:42:42;;;;;;;13.55;5.38;;;;;;;-144.73;73.84;54444.66;4988790;28;20125;-78
2023/03/17 05:45:14;;;;;;;9.63;4.70;;;;;;;-144.73;73.70;54469.28;4997574;28;20022;-79
2023/03/17 05:47:39;;;;;;;12.48;4.47;;;;;;;-144.73;74.02;54442.59;4997079;28;20472;-79
2023/03/17 05:50:14;;;;;;;14.48;5.80;;;;;;;-144.73;74.07;54436.44;4998407;28;20026;-77
2023/03/17 05:56:09;;;;;;;11.88;5.28;;;;;;;-144.73;73.89;54448.75;5007942;28;20446;-78
2023/03/17 05:59:14;;;;;;;;;;;;;;;;;;;;;
2023/03/17 06:02:08;;;;;;;;;;;;;;;;;;;;;
2023/03/17 06:05:00;;;;;;;9.57;4.55;;;;;;;-144.73;73.68;54481.59;5017462;28;20022;-79
2023/03/17 06:07:26;;;;;;;10.80;5.07;;;;;;;-144.73;73.83;54456.97;4998152;28;20038;-79
2023/03/17 06:10:20;;;;;;;10.73;5.40;;;;;;;-144.73;73.85;54424.13;4997511;28;20022;-80
2023/03/17 06:12:46;;;;;;;15.80;5.72;;;;;;;-144.73;73.67;54440.53;4991381;28;20034;-79
2023/03/17 06:15:11;;;;;;;11.02;5.22;;;;;;;-144.73;73.83;54452.84;5002090;28;20041;-79
2023/03/17 06:17:37;;;;;;;12.85;5.70;;;;;;;-144.73;73.49;54452.84;4990468;28;20030;-79
2023/03/17 06:20:07;;;;;;;17.40;5.22;;;;;;;-144.73;72.82;54452.84;5002195;28;20032;-79
2023/03/17 06:22:36;;;;;;;12.15;5.03;;;;;;;-144.73;72.99;54424.13;4991634;28;20045;-79
2023/03/17 06:25:05;;;;;;;9.52;4.95;;;;;;;-144.73;72.24;54452.84;5003414;28;20030;-79
2023/03/17 06:27:31;;;;;;;12.60;5.57;;;;;;;-144.73;71.88;54432.31;5012545;23;20033;-74
2023/03/17 06:29:58;;;;;;;9.43;5.20;;;;;;;-144.73;71.55;54424.13;5041593;28;20116;-74
2023/03/17 06:32:23;;;;;;;10.73;5.38;;;;;;;-144.73;71.43;54440.53;5014869;28;20093;-74
2023/03/17 06:34:48;;;;;;;13.60;5.70;;;;;;;-144.73;71.69;54420.00;5040857;28;20067;-74
2023/03/17 06:37:15;;;;;;;14.82;6.15;;;;;;;-144.73;72.08;54479.53;5013844;28;20037;-75
2023/03/17 06:39:41;;;;;;;11.70;5.30;;;;;;;-144.73;71.92;54461.06;5001667;28;20033;-75
2023/03/17 06:42:06;;;;;;;10.73;5.07;;;;;;;-144.73;71.87;54452.84;5004083;28;20038;-75
2023/03/17 06:44:32;;;;;;;13.38;5.95;;;;;;;-144.73;72.10;54426.16;5023342;28;20026;-75
2023/03/17 06:46:58;;;;;;;15.30;6.68;;;;;;;-144.73;71.78;54428.22;5006844;28;20034;-75
2023/03/17 06:49:23;;;;;;;11.23;5.97;;;;;;;-144.73;71.46;54452.84;5011546;28;20040;-74
2023/03/17 06:51:49;;;;;;;9.55;5.18;;;;;;;-144.73;71.47;54469.28;5008658;28;20058;-74
2023/03/17 06:54:15;;;;;;;14.40;6.00;;;;;;;-144.73;71.27;54432.31;5023960;28;20030;-74
2023/03/17 06:56:41;;;;;;;11.82;5.38;;;;;;;-144.73;71.00;54483.66;5021898;28;20033;-74
2023/03/17 06:59:06;;;;;;;16.33;6.35;;;;;;;-144.73;70.22;54397.44;5000319;28;20029;-74
2023/03/17 07:01:32;;;;;;;11.75;5.45;;;;;;;-144.73;70.38;54399.50;5005666;28;20041;-74
2023/03/17 07:03:58;;;;;;;13.73;5.70;;;;;;;-144.73;69.68;54430.28;5007972;28;20029;-74
2023/03/17 07:06:23;;;;;;;10.80;6.00;;;;;;;-144.73;69.87;54399.50;5011626;28;20058;-75
2023/03/17 07:08:49;;;;;;;19.00;7.00;;;;;;;-144.73;70.24;54391.28;4995864;28;20044;-72
2023/03/17 07:11:15;;;;;;;13.15;6.50;;;;;;;-144.73;70.07;54424.13;5010085;28;20025;-72
2023/03/17 07:13:41;;;;;;;15.60;5.38;;;;;;;-144.73;70.00;54450.81;5010716;28;20033;-72
2023/03/17 07:16:06;;;;;;;12.05;5.75;;;;;;;-144.73;70.06;54456.97;5010405;28;20030;-72
2023/03/17 07:18:32;;;;;;;14.27;6.63;;;;;;;-144.73;69.67;54444.66;5011837;28;20030;-72
2023/03/17 07:21:01;;;;;;;17.15;5.68;;;;;;;-144.73;69.13;54407.69;5011525;28;20112;-72
2023/03/17 07:23:27;;;;;;;13.98;6.35;;;;;;;-144.73;69.13;54473.38;4982959;28;20057;-70
2023/03/17 07:25:52;;;;;;;15.52;5.63;;;;;;;-144.73;68.54;54428.22;5010315;28;20028;-70
2023/03/17 07:28:19;;;;;;;12.90;6.28;;;;;;;-144.73;68.57;54450.81;5009405;28;20042;-70
2023/03/17 07:30:47;;;;;;;12.95;4.93;;;;;;;-144.73;68.81;54434.38;5001067;28;20029;-70
2023/03/17 07:33:13;;;;;;;14.98;5.57;;;;;;;-144.73;68.67;54452.84;5004400;28;20038;-70
2023/03/17 07:35:38;;;;;;;12.70;5.85;;;;;;;-144.73;68.39;54424.13;5006157;28;20034;-70
2023/03/17 07:38:04;;;;;;;15.13;5.65;;;;;;;-144.73;67.64;54446.69;4996381;28;20064;-70
2023/03/17 07:40:30;;;;;;;10.98;5.50;;;;;;;-144.73;67.34;54424.13;5010622;28;20402;-70
2023/03/17 07:42:55;;;;;;;12.57;5.93;;;;;;;-144.73;67.07;54424.13;5008640;28;20038;-71
2023/03/17 07:45:21;;;;;;;18.45;6.38;;;;;;;-144.73;66.66;54430.28;4993708;28;20133;-70
2023/03/17 07:47:46;;;;;;;10.25;5.70;;;;;;;-144.73;65.76;54452.84;4992893;28;20042;-70
2023/03/17 07:50:12;;;;;;;9.52;5.03;;;;;;;-144.73;65.05;54407.69;4992938;28;20025;-70
2023/03/17 07:52:37;;;;;;;12.00;5.40;;;;;;;-144.73;65.48;54407.69;5010601;28;20030;-71
2023/03/17 07:55:07;;;;;;;15.65;5.57;;;;;;;-144.73;64.74;54436.44;4994145;28;20501;-71
2023/03/17 07:57:32;;;;;;;14.15;6.10;;;;;;;-144.73;64.28;54428.22;4988530;28;20057;-70
2023/03/17 07:59:58;;;;;;;21.52;5.68;;;;;;;-144.73;64.46;54424.13;4982583;28;20056;-70
2023/03/17 08:02:23;;;;;;;11.15;5.82;;;;;;;-144.73;64.88;54440.53;4983577;28;20045;-70
2023/03/17 08:04:49;;;;;;;15.32;6.93;;;;;;;-144.73;64.36;54444.66;4987149;28;20500;-70
2023/03/17 08:07:15;;;;;;;9.63;5.70;;;;;;;-144.73;64.17;54407.69;4986182;28;20490;-70
2023/03/17 08:09:40;;;;;;;19.33;6.80;;;;;;;-144.73;63.53;54395.38;4986981;28;20034;-71
2023/03/17 08:12:08;;;;;;;10.63;5.70;;;;;;;-144.73;63.04;54420.00;5003463;28;20406;-70
2023/03/17 08:14:33;;;;;;;13.68;5.75;;;;;;;-144.73;62.92;54436.44;4986496;28;20030;-70
2023/03/17 08:16:58;;;;;;;11.35;5.63;;;;;;;-144.73;62.08;54399.50;5003565;28;20118;-69
2023/03/17 08:19:24;;;;;;;10.88;5.70;;;;;;;-144.73;60.94;54391.28;5004927;28;20046;-69
2023/03/17 08:21:50;;;;;;;10.98;5.75;;;;;;;-144.73;59.74;54383.06;4986967;28;20042;-70
2023/03/17 08:24:16;;;;;;;11.68;5.93;;;;;;;-144.73;59.64;54428.22;4988575;28;20022;-71
2023/03/17 08:26:42;;;;;;;12.50;6.45;;;;;;;-144.73;58.97;54430.28;5003789;28;20390;-72
2023/03/17 08:29:08;;;;;;;12.70;5.47;;;;;;;-144.73;58.84;54426.16;5006064;28;20042;-71
2023/03/17 08:31:34;;;;;;;10.80;6.00;;;;;;;-144.73;58.76;54424.13;4987695;28;20046;-71
2023/03/17 08:34:01;;;;;;;11.68;5.60;;;;;;;-144.73;58.57;54448.75;5006357;28;20025;-72
2023/03/17 08:36:27;;;;;;;9.70;5.97;;;;;;;-144.73;57.83;54432.31;5004249;28;20037;-71
2023/03/17 08:38:53;;;;;;;8.93;5.07;;;;;;;-144.73;57.69;54385.13;4986783;28;20067;-74
2023/03/17 08:41:22;;;;;;;16.17;5.97;;;;;;;-144.73;56.62;54424.13;4985958;28;20029;-70
2023/03/17 08:43:49;;;;;;;10.43;5.43;;;;;;;-144.73;55.60;54434.38;4987375;28;20290;-71
2023/03/17 08:46:24;;;;;;;14.27;5.68;;;;;;;-144.73;55.28;54420.00;5004038;28;20053;-71
2023/03/17 08:48:51;;;;;;;12.25;5.60;;;;;;;-144.73;55.31;54440.53;4992284;28;20062;-71
2023/03/17 08:51:17;;;;;;;13.73;5.25;;;;;;;-144.73;55.33;54387.19;5005892;28;20459;-72
2023/03/17 08:53:43;;;;;;;12.93;5.60;;;;;;;-144.73;55.53;54424.13;5000545;28;20018;-72
2023/03/17 08:56:09;;;;;;;9.25;5.00;;;;;;;-144.73;55.19;54434.38;5007277;28;20028;-72
2023/03/17 08:58:38;;;;;;;10.60;4.97;;;;;;;-144.73;54.58;54428.22;4989163;28;20029;-71
2023/03/17 09:01:03;;;;;;;12.25;5.28;;;;;;;-144.73;54.04;54409.75;5006563;28;20022;-71
2023/03/17 09:03:32;;;;;;;11.57;5.50;;;;;;;-144.73;53.45;54424.13;4990577;28;20018;-71
2023/03/17 09:05:58;;;;;;;10.52;5.18;;;;;;;-144.73;52.18;54432.31;5006103;28;20069;-71
2023/03/17 09:08:26;;;;;;;13.15;5.03;;;;;;;-144.73;52.42;54438.50;5006793;28;21225;-71
2023/03/17 09:10:53;;;;;;;9.63;4.90;;;;;;;-144.73;52.31;54436.44;4989801;28;20026;-70
2023/03/17 09:13:19;;;;;;;14.82;4.97;;;;;;;-144.73;52.67;54422.06;5005910;28;20026;-70
2023/03/17 09:15:45;;;;;;;10.38;5.07;;;;;;;-144.73;50.36;54391.28;4998603;28;20485;-71
2023/03/17 09:18:10;;;;;;;9.10;4.32;;;;;;;-144.73;50.26;54432.31;4994507;28;20049;-71
2023/03/17 09:20:36;;;;;;;12.35;4.72;;;;;;;-144.73;49.99;54391.28;4990874;28;20025;-71
2023/03/17 09:23:06;;;;;;;12.60;5.03;;;;;;;-144.73;50.15;54454.91;4991485;28;20065;-71
2023/03/17 09:25:34;;;;;;;11.82;4.47;;;;;;;-144.73;50.40;54424.13;4988769;28;20018;-72
2023/03/17 09:27:59;;;;;;;12.45;5.35;;;;;;;-144.73;50.10;54407.69;4988574;28;20054;-70
2023/03/17 09:30:25;;;;;;;10.95;4.97;;;;;;;-144.73;49.91;54395.38;4988449;28;20014;-70
2023/03/17 09:32:51;;;;;;;8.93;5.18;;;;;;;-144.73;49.51;54428.22;4989472;28;20068;-72
2023/03/17 09:35:17;;;;;;;9.07;4.38;;;;;;;-144.73;49.55;54411.81;4987866;28;20014;-72
2023/03/17 09:37:42;;;;;;;8.50;4.35;;;;;;;-144.73;49.75;54420.00;4988658;28;20052;-70
2023/03/17 09:40:16;;;;;;;8.80;4.57;;;;;;;-144.73;49.71;54407.69;4990641;28;20025;-70
2023/03/17 09:42:56;;;;;;;14.95;4.70;;;;;;;-144.73;48.91;54362.53;5004846;28;20030;-70
2023/03/17 09:45:36;;;;;;;12.30;6.03;;;;;;;-144.73;48.99;54389.22;5000397;28;20028;-70
2023/03/17 09:48:21;;;;;;;11.48;5.43;;;;;;;-144.73;48.60;54391.28;4988179;28;20053;-71
2023/03/17 09:50:56;;;;;;;11.48;4.75;;;;;;;-144.73;48.56;54378.97;5006175;28;20105;-71
2023/03/17 09:53:26;;;;;;;8.05;4.50;;;;;;;-144.73;47.99;54397.44;5006680;28;20022;-72
2023/03/17 09:55:57;;;;;;;8.85;4.72;;;;;;;-144.73;47.64;54399.50;5005260;28;20018;-72
2023/03/17 09:58:32;;;;;;;9.35;5.25;;;;;;;-144.73;47.30;54370.75;5005461;28;20113;-72
2023/03/17 10:00:58;;;;;;;11.05;5.53;;;;;;;-144.73;47.03;54415.91;4985825;28;20425;-70
2023/03/17 10:03:24;;;;;;;12.50;4.72;;;;;;;-144.73;46.90;54358.44;5005359;28;20030;-71
2023/03/17 10:05:50;;;;;;;8.18;4.65;;;;;;;-144.73;46.21;54350.22;5003900;28;20239;-71
2023/03/17 10:08:30;;;;;;;8.18;5.47;;;;;;;-144.73;46.57;54397.44;4996461;28;20037;-71
2023/03/17 10:11:41;;;;;;;10.15;4.88;;;;;;;-144.73;45.23;54391.28;4988557;28;20029;-70
2023/03/17 10:14:22;;;;;;;10.57;4.40;;;;;;;-144.73;45.95;54407.69;4935949;28;20186;-71
2023/03/17 10:17:02;;;;;;;11.52;4.47;;;;;;;-144.73;45.14;54411.81;4936256;28;20062;-71
2023/03/17 10:19:33;;;;;;;9.18;4.68;;;;;;;-144.73;45.32;54370.75;4974947;28;20546;-71
2023/03/17 10:22:14;;;;;;;5.68;3.63;;;;;;;-144.73;44.50;54407.69;5004207;28;20064;-71
2023/03/17 10:24:47;;;;;;;7.38;4.07;;;;;;;-144.73;45.75;54385.13;4994056;28;20091;-70
2023/03/17 10:27:14;;;;;;;8.07;4.28;;;;;;;-144.73;46.49;54428.22;4995596;28;20041;-70
2023/03/17 10:29:40;;;;;;;10.30;4.13;;;;;;;-144.73;46.32;54395.38;4999057;28;20112;-72
2023/03/17 10:32:11;;;;;;;9.57;3.50;;;;;;;-144.73;46.00;54395.38;5009354;28;20072;-72
2023/03/17 10:34:38;;;;;;;6.10;3.60;;;;;;;-144.73;46.17;54407.69;4988412;28;20026;-71
2023/03/17 10:37:11;;;;;;;14.02;4.18;;;;;;;-144.73;45.42;54383.06;5004523;28;20048;-71
2023/03/17 10:39:51;;;;;;;6.38;3.83;;;;;;;-144.73;45.35;54424.13;4987963;28;20044;-71
2023/03/17 10:42:24;;;;;;;8.38;3.95;;;;;;;-144.73;44.81;54411.81;4987937;28;20034;-71
2023/03/17 10:44:54;;;;;;;8.60;4.43;;;;;;;-144.73;44.78;54391.28;4988770;28;20053;-71
2023/03/17 10:47:43;;;;;;;8.25;4.65;;;;;;;-144.73;44.63;54385.13;4983738;28;20046;-71
2023/03/17 10:50:15;;;;;;;7.18;4.18;;;;;;;-144.73;44.02;54440.53;4987876;28;20113;-71
2023/03/17 10:52:41;;;;;;;7.97;4.07;;;;;;;-144.73;43.60;54407.69;4987290;28;20041;-71
2023/03/17 10:55:12;;;;;;;9.13;4.40;;;;;;;-144.73;44.30;54370.75;4986986;28;20101;-72
2023/03/17 10:57:38;;;;;;;7.10;4.03;;;;;;;-144.73;43.75;54407.69;5004687;28;20026;-71
2023/03/17 11:00:15;;;;;;;6.40;3.78;;;;;;;-144.73;44.03;54378.97;4986293;28;20021;-71
2023/03/17 11:02:55;;;;;;;8.55;4.13;;;;;;;-144.73;44.00;54374.84;4985807;28;20029;-71
2023/03/17 11:05:24;;;;;;;5.50;3.35;;;;;;;-144.73;43.21;54448.75;5004888;28;20061;-71
2023/03/17 11:07:56;;;;;;;6.80;3.40;;;;;;;-144.73;43.00;54391.28;4994930;28;20038;-71
2023/03/17 11:10:24;;;;;;;9.25;3.90;;;;;;;-144.73;42.70;54411.81;4995237;28;20022;-70
2023/03/17 11:12:59;;;;;;;7.38;3.85;;;;;;;-144.73;41.79;54378.97;4994364;28;20049;-70
2023/03/17 11:15:30;;;;;;;12.25;3.20;;;;;;;-144.73;41.46;54383.06;4986460;28;20023;-71
2023/03/17 11:18:02;;;;;;;7.30;3.25;;;;;;;-144.73;40.81;54376.91;4986500;28;20038;-71
2023/03/17 11:20:43;;;;;;;5.85;2.95;;;;;;;-144.73;41.17;54366.66;4996784;28;20022;-70
2023/03/17 11:23:56;;;;;;;6.80;3.42;;;;;;;-144.73;41.38;54362.53;4986334;28;20030;-71
2023/03/17 11:26:57;;;;;;;6.93;3.30;;;;;;;-144.73;40.75;54395.38;4986743;28;20034;-71